Time;durP1;ratioP1;P1;durP2;ratioP2;P2;SDS_P1;SDS_P2;PMS_P1;PMS_P2;Temp;Humidity;BMP_temperature;BMP_pressure;BME280_temperature;BME280_humidity;BME280_pressure;Samples;Min_cycle;Max_cycle;Signal;HPM_P1;HPM_P2
2022/04/22 00:01:36;;;;;;;9.98;6.20;;;10.60;99.90;;;;;;5059480;28;20047;-65
2022/04/22 00:04:03;;;;;;;11.63;6.38;;;10.60;99.90;;;;;;5059759;28;20087;-65
2022/04/22 00:06:29;;;;;;;11.82;6.80;;;10.60;99.90;;;;;;5060542;28;20046;-64
2022/04/22 00:08:54;;;;;;;8.65;5.93;;;10.50;99.90;;;;;;5061992;28;20035;-64
2022/04/22 00:11:29;;;;;;;10.35;6.15;;;10.40;99.90;;;;;;5065603;28;20125;-64
2022/04/22 00:14:00;;;;;;;11.35;6.28;;;10.30;99.90;;;;;;5068137;28;20039;-64
2022/04/22 00:16:31;;;;;;;11.27;6.15;;;10.20;99.90;;;;;;5057508;28;20109;-64
2022/04/22 00:18:57;;;;;;;12.73;6.43;;;10.20;99.90;;;;;;5055613;28;20040;-64
2022/04/22 00:21:23;;;;;;;14.30;6.63;;;10.20;99.90;;;;;;5056024;28;20328;-64
2022/04/22 00:23:49;;;;;;;8.75;6.47;;;10.10;99.90;;;;;;5056206;28;20744;-64
2022/04/22 00:26:16;;;;;;;9.50;6.30;;;10.10;99.90;;;;;;5055384;28;20053;-64
2022/04/22 00:28:41;;;;;;;12.90;7.03;;;10.10;99.90;;;;;;5059610;28;20044;-64
2022/04/22 00:31:07;;;;;;;11.38;6.20;;;10.10;99.90;;;;;;5059324;28;20047;-64
2022/04/22 00:33:32;;;;;;;9.80;6.72;;;10.10;99.90;;;;;;5057985;28;20048;-64
2022/04/22 00:35:59;;;;;;;13.00;6.18;;;10.10;99.90;;;;;;5053113;28;20052;-64
2022/04/22 00:38:24;;;;;;;10.90;6.90;;;10.10;99.90;;;;;;5057230;28;20506;-64
2022/04/22 00:40:52;;;;;;;12.32;7.60;;;10.10;99.90;;;;;;5075890;28;20043;-65
2022/04/22 00:43:21;;;;;;;13.07;7.45;;;10.00;99.90;;;;;;5073853;28;20060;-64
2022/04/22 00:45:48;;;;;;;8.80;6.38;;;10.00;99.90;;;;;;5075266;28;20858;-64
2022/04/22 00:48:14;;;;;;;9.38;6.57;;;10.00;99.90;;;;;;5075835;28;20120;-64
2022/04/22 00:50:40;;;;;;;12.85;7.55;;;9.90;99.90;;;;;;5075732;28;20051;-64
2022/04/22 00:53:07;;;;;;;13.27;6.80;;;9.90;99.90;;;;;;5075698;28;20050;-65
2022/04/22 00:55:34;;;;;;;10.02;6.78;;;9.90;99.90;;;;;;5075956;28;20475;-64
2022/04/22 00:58:01;;;;;;;14.88;6.63;;;9.90;99.90;;;;;;5073813;28;20075;-64
2022/04/22 01:00:26;;;;;;;11.90;7.03;;;9.80;99.90;;;;;;5066777;28;20040;-64
2022/04/22 01:02:52;;;;;;;10.75;7.22;;;9.80;99.90;;;;;;5074299;28;20105;-64
2022/04/22 01:10:47;;;;;;;10.48;6.60;;;9.70;99.90;;;;;;5065932;28;20055;-65
2022/04/22 01:13:12;;;;;;;11.00;6.53;;;9.70;99.90;;;;;;5075179;28;20333;-64
2022/04/22 01:15:38;;;;;;;13.05;7.57;;;9.70;99.90;;;;;;5075194;28;20593;-65
2022/04/22 01:18:04;;;;;;;14.68;6.95;;;9.70;99.90;;;;;;5075214;28;20043;-64
2022/04/22 01:20:30;;;;;;;11.95;6.50;;;9.60;99.90;;;;;;5075579;28;20814;-64
2022/04/22 01:22:56;;;;;;;10.13;6.93;;;9.60;99.90;;;;;;5075394;28;20055;-64
2022/04/22 01:25:21;;;;;;;12.23;7.93;;;9.60;99.90;;;;;;5073939;28;20060;-64
2022/04/22 01:27:51;;;;;;;11.05;6.90;;;9.60;99.90;;;;;;5074099;28;20060;-65
2022/04/22 01:30:21;;;;;;;10.55;6.13;;;9.60;99.90;;;;;;5069637;28;20111;-65
2022/04/22 01:32:51;;;;;;;11.75;6.60;;;9.60;99.90;;;;;;5074472;28;20044;-64
2022/04/22 01:35:17;;;;;;;12.68;6.45;;;9.50;99.90;;;;;;5075290;28;20044;-64
2022/04/22 01:37:43;;;;;;;10.57;6.93;;;9.50;99.90;;;;;;5075729;28;20814;-64
2022/04/22 01:40:10;;;;;;;11.65;6.88;;;9.40;99.90;;;;;;5073951;28;20051;-64
2022/04/22 01:42:35;;;;;;;13.35;7.07;;;9.40;99.90;;;;;;5073661;28;20063;-65
2022/04/22 01:45:01;;;;;;;12.85;8.38;;;9.40;99.90;;;;;;5075552;28;20051;-65
2022/04/22 01:47:26;;;;;;;8.52;6.53;;;9.40;99.90;;;;;;5075363;28;20725;-65
2022/04/22 01:49:52;;;;;;;7.57;6.10;;;9.30;99.90;;;;;;5075467;28;20052;-64
2022/04/22 01:52:18;;;;;;;9.93;6.32;;;9.30;99.90;;;;;;5074956;28;20072;-64
2022/04/22 01:54:44;;;;;;;12.00;6.78;;;9.30;99.90;;;;;;5073181;28;20059;-64
2022/04/22 01:57:10;;;;;;;9.50;6.60;;;9.20;99.90;;;;;;5075636;28;20049;-65
2022/04/22 01:59:35;;;;;;;11.38;6.30;;;9.20;99.90;;;;;;5075363;28;20590;-65
2022/04/22 02:02:01;;;;;;;14.75;7.47;;;9.10;99.90;;;;;;5074207;28;20036;-65
2022/04/22 02:04:26;;;;;;;10.75;7.78;;;9.10;99.90;;;;;;5075639;28;20128;-65
2022/04/22 02:06:52;;;;;;;10.32;6.32;;;9.10;99.90;;;;;;5075280;28;20033;-65
2022/04/22 02:09:17;;;;;;;10.63;5.88;;;9.10;99.90;;;;;;5074800;28;20098;-65
2022/04/22 02:11:43;;;;;;;8.82;6.25;;;9.10;99.90;;;;;;5075179;28;20264;-65
2022/04/22 02:14:09;;;;;;;11.20;7.00;;;9.10;99.90;;;;;;5074428;28;20070;-65
2022/04/22 02:16:35;;;;;;;10.75;6.07;;;9.00;99.90;;;;;;5074748;28;20380;-65
2022/04/22 02:19:00;;;;;;;9.77;6.20;;;9.00;99.90;;;;;;5072436;28;20127;-65
2022/04/22 02:21:26;;;;;;;7.57;6.00;;;9.00;99.90;;;;;;5073498;28;20708;-65
2022/04/22 02:23:51;;;;;;;8.60;4.78;;;9.00;99.90;;;;;;5075269;28;20090;-66
2022/04/22 02:26:17;;;;;;;8.50;4.72;;;9.00;99.90;;;;;;5075454;28;20407;-65
2022/04/22 02:28:43;;;;;;;8.63;5.32;;;9.00;99.90;;;;;;5074753;28;20140;-65
2022/04/22 02:31:10;;;;;;;11.23;5.53;;;9.00;99.90;;;;;;5073785;28;20044;-65
2022/04/22 02:33:38;;;;;;;9.90;5.70;;;8.90;99.90;;;;;;5075338;28;20614;-65
2022/04/22 02:36:06;;;;;;;7.93;4.55;;;8.90;99.90;;;;;;5074582;28;20124;-65
2022/04/22 02:38:32;;;;;;;10.90;5.30;;;8.90;99.90;;;;;;5067579;28;20042;-65
2022/04/22 02:46:28;;;;;;;7.05;4.22;;;8.80;99.90;;;;;;5076985;28;20514;-65
2022/04/22 02:48:59;;;;;;;5.43;4.53;;;8.80;99.90;;;;;;5078196;28;20130;-65
2022/04/22 02:51:26;;;;;;;5.63;4.80;;;8.80;99.90;;;;;;5077198;28;20819;-65
2022/04/22 02:53:53;;;;;;;6.18;4.45;;;8.80;99.90;;;;;;5078805;28;20139;-65
2022/04/22 02:56:20;;;;;;;5.82;3.78;;;8.70;99.90;;;;;;5077344;28;20043;-65
2022/04/22 02:58:46;;;;;;;7.10;4.60;;;8.70;99.90;;;;;;5078679;28;20056;-65
2022/04/22 03:01:13;;;;;;;7.63;5.18;;;8.70;99.90;;;;;;5078705;28;20101;-65
2022/04/22 03:03:38;;;;;;;10.57;5.10;;;8.70;99.90;;;;;;5077895;28;20067;-65
2022/04/22 03:06:04;;;;;;;7.07;5.03;;;8.70;99.90;;;;;;5077643;28;20051;-65
2022/04/22 03:08:30;;;;;;;8.20;5.18;;;8.70;99.90;;;;;;5077049;28;20062;-65
2022/04/22 03:10:55;;;;;;;8.32;4.90;;;8.60;99.90;;;;;;5077521;28;20055;-65
2022/04/22 03:13:21;;;;;;;7.03;4.90;;;8.60;99.90;;;;;;5077599;28;20757;-65
2022/04/22 03:15:47;;;;;;;5.90;4.55;;;8.60;99.90;;;;;;5077113;28;20147;-65
2022/04/22 03:18:13;;;;;;;7.70;5.68;;;8.50;99.90;;;;;;5077066;28;20051;-65
2022/04/22 03:20:39;;;;;;;6.32;3.83;;;8.50;99.90;;;;;;5078367;28;21121;-65
2022/04/22 03:23:04;;;;;;;9.27;5.30;;;8.50;99.90;;;;;;5076396;28;20052;-65
2022/04/22 03:25:30;;;;;;;6.32;4.43;;;8.50;99.90;;;;;;5077871;28;20048;-65
2022/04/22 03:27:56;;;;;;;8.68;4.50;;;8.50;99.90;;;;;;5077843;28;20051;-65
2022/04/22 03:30:21;;;;;;;7.53;5.00;;;8.40;99.90;;;;;;5077653;28;20150;-65
2022/04/22 03:32:47;;;;;;;7.03;4.53;;;8.50;99.90;;;;;;5077524;28;20518;-65
2022/04/22 03:35:12;;;;;;;6.75;5.45;;;8.40;99.90;;;;;;5076694;28;20048;-65
2022/04/22 03:37:38;;;;;;;5.35;4.25;;;8.40;99.90;;;;;;5078264;28;20040;-65
2022/04/22 03:40:05;;;;;;;7.30;4.47;;;8.40;99.90;;;;;;5077346;28;20044;-65
2022/04/22 03:42:32;;;;;;;5.38;4.47;;;8.40;99.90;;;;;;5077727;28;20127;-65
2022/04/22 03:44:57;;;;;;;6.35;4.55;;;8.40;99.90;;;;;;5077072;28;20867;-65
2022/04/22 03:47:23;;;;;;;7.45;4.35;;;8.30;99.90;;;;;;5076264;28;20043;-65
2022/04/22 03:49:49;;;;;;;8.25;4.85;;;8.30;99.90;;;;;;5077446;28;20506;-65
2022/04/22 03:52:15;;;;;;;5.55;4.03;;;8.20;99.90;;;;;;5077418;28;20044;-65
2022/04/22 03:54:41;;;;;;;8.13;4.45;;;8.20;99.90;;;;;;5076587;28;20089;-65
2022/04/22 03:59:50;;;;;;;5.53;4.78;;;8.10;99.90;;;;;;5076752;28;20051;-65
2022/04/22 04:02:16;;;;;;;7.90;5.55;;;8.10;99.90;;;;;;5075500;28;20052;-65
2022/04/22 04:04:42;;;;;;;7.97;4.95;;;8.10;99.90;;;;;;5075409;28;20055;-65
2022/04/22 04:07:07;;;;;;;6.68;4.38;;;8.00;99.90;;;;;;5076943;28;20044;-65
2022/04/22 04:17:45;;;;;;;5.60;4.72;;;8.00;99.90;;;;;;5076768;28;20416;-65
2022/04/22 04:23:14;;;;;;;9.90;4.30;;;8.00;99.90;;;;;;5076724;28;20117;-65
2022/04/22 04:25:40;;;;;;;6.43;4.57;;;8.00;99.90;;;;;;5075308;28;20087;-65
2022/04/22 04:28:09;;;;;;;8.48;4.38;;;8.00;99.90;;;;;;5076059;28;20048;-65
2022/04/22 04:30:39;;;;;;;5.25;4.60;;;8.00;99.90;;;;;;5076113;28;20454;-65
2022/04/22 04:33:06;;;;;;;6.32;4.72;;;8.00;99.90;;;;;;5076189;28;20506;-66
2022/04/22 04:35:31;;;;;;;8.00;4.50;;;8.00;99.90;;;;;;5075924;28;20055;-65
2022/04/22 04:37:57;;;;;;;7.63;4.88;;;8.00;99.90;;;;;;5074644;28;20044;-65
2022/04/22 04:40:23;;;;;;;23.60;6.03;;;7.90;99.90;;;;;;5076064;28;20039;-65
2022/04/22 04:42:52;;;;;;;8.18;5.15;;;7.90;99.90;;;;;;5076466;28;20052;-65
2022/04/22 04:45:18;;;;;;;9.38;4.22;;;7.90;99.90;;;;;;5074967;28;20556;-65
2022/04/22 04:47:43;;;;;;;4.55;3.92;;;7.90;99.90;;;;;;5076613;28;20052;-65
2022/04/22 04:50:10;;;;;;;5.10;4.63;;;7.90;99.90;;;;;;5075025;28;20084;-65
2022/04/22 04:52:37;;;;;;;7.65;5.05;;;7.80;99.90;;;;;;5076136;28;20159;-65
2022/04/22 04:55:05;;;;;;;8.15;5.00;;;7.80;99.90;;;;;;5076731;28;20158;-65
2022/04/22 04:57:30;;;;;;;5.28;4.57;;;7.80;99.90;;;;;;5075876;28;20036;-65
2022/04/22 04:59:56;;;;;;;6.25;4.57;;;7.80;99.90;;;;;;5076228;28;20044;-65
2022/04/22 05:02:21;;;;;;;6.75;4.32;;;7.80;99.90;;;;;;5075421;28;20774;-65
2022/04/22 05:04:47;;;;;;;6.60;4.43;;;7.80;99.90;;;;;;5075663;28;20628;-65
2022/04/22 05:07:12;;;;;;;6.07;4.10;;;7.80;99.90;;;;;;5076402;28;20052;-65
2022/04/22 05:09:38;;;;;;;7.10;4.30;;;7.80;99.90;;;;;;5075422;28;20116;-65
2022/04/22 05:12:04;;;;;;;7.70;4.35;;;7.80;99.90;;;;;;5074950;28;20086;-65
2022/04/22 05:14:29;;;;;;;5.05;4.47;;;7.80;99.90;;;;;;5075655;28;20043;-65
2022/04/22 05:16:55;;;;;;;9.32;5.15;;;7.80;99.90;;;;;;5075278;28;20064;-65
2022/04/22 05:19:22;;;;;;;8.65;4.47;;;7.80;99.90;;;;;;5074708;28;20044;-65
2022/04/22 05:21:49;;;;;;;7.45;4.50;;;7.80;99.90;;;;;;5068400;28;20783;-65
2022/04/22 05:24:15;;;;;;;9.52;4.97;;;7.80;99.90;;;;;;5065909;28;20053;-65
2022/04/22 05:26:41;;;;;;;6.85;4.88;;;7.90;99.90;;;;;;5065473;28;20033;-65
2022/04/22 05:32:36;;;;;;;6.10;4.85;;;8.00;99.90;;;;;;5065403;28;20442;-65
2022/04/22 05:34:36;;;;;;;5.68;4.47;;;8.10;99.90;;;;;;5067054;28;20052;-65
2022/04/22 05:37:02;;;;;;;6.85;4.82;;;8.10;99.90;;;;;;5062414;28;20051;-65
2022/04/22 05:39:28;;;;;;;5.00;4.20;;;8.20;99.90;;;;;;5058621;28;20044;-65
2022/04/22 05:41:54;;;;;;;7.53;3.75;;;8.20;99.90;;;;;;5061888;28;20033;-65
2022/04/22 05:44:19;;;;;;;7.88;4.63;;;8.20;99.90;;;;;;5058977;28;20163;-65
2022/04/22 05:46:45;;;;;;;7.05;4.20;;;8.30;99.90;;;;;;5056840;28;20043;-65
2022/04/22 05:49:11;;;;;;;5.10;4.05;;;8.30;99.90;;;;;;5065566;28;20040;-65
2022/04/22 05:51:36;;;;;;;4.25;3.47;;;8.40;99.90;;;;;;5056924;28;20075;-65
2022/04/22 05:54:02;;;;;;;6.47;3.58;;;8.40;99.90;;;;;;5063229;28;20043;-65
2022/04/22 05:56:29;;;;;;;4.43;3.53;;;8.50;99.90;;;;;;5064424;28;20044;-65
2022/04/22 05:58:55;;;;;;;8.65;3.70;;;8.60;99.90;;;;;;5061375;28;20043;-64
2022/04/22 06:01:22;;;;;;;7.13;3.58;;;8.60;99.90;;;;;;5065183;28;20154;-64
2022/04/22 06:03:48;;;;;;;3.78;3.22;;;8.70;99.90;;;;;;5058976;28;20059;-64
2022/04/22 06:06:14;;;;;;;4.43;2.92;;;8.70;99.90;;;;;;5055939;28;20041;-64
2022/04/22 06:11:24;;;;;;;4.45;3.15;;;8.90;99.90;;;;;;5055602;28;20111;-64
2022/04/22 06:13:49;;;;;;;4.75;3.28;;;9.00;99.90;;;;;;5060158;28;20630;-65
2022/04/22 06:16:15;;;;;;;4.40;3.50;;;9.00;99.90;;;;;;5063482;28;20528;-65
2022/04/22 06:18:40;;;;;;;4.70;2.97;;;9.20;99.90;;;;;;5061932;28;20617;-64
2022/04/22 06:21:06;;;;;;;3.92;3.15;;;9.20;99.90;;;;;;5071542;28;20048;-64
2022/04/22 06:23:32;;;;;;;3.97;3.03;;;9.30;99.90;;;;;;5068141;28;20052;-65
2022/04/22 06:25:57;;;;;;;6.65;3.10;;;9.40;99.90;;;;;;5065205;28;20044;-64
2022/04/22 06:28:23;;;;;;;3.67;3.00;;;9.50;99.90;;;;;;5067209;28;20115;-65
2022/04/22 06:30:49;;;;;;;3.67;2.58;;;9.60;99.90;;;;;;5067227;28;20566;-65
2022/04/22 06:33:16;;;;;;;3.83;2.65;;;9.70;99.90;;;;;;5072127;28;20050;-65
2022/04/22 06:35:42;;;;;;;3.97;2.47;;;9.80;99.90;;;;;;5062137;28;20055;-65
2022/04/22 06:38:08;;;;;;;3.78;3.08;;;9.80;99.90;;;;;;5059203;28;20044;-65
2022/04/22 06:46:03;;;;;;;2.75;2.47;;;10.20;99.90;;;;;;5058625;28;20094;-64
2022/04/22 06:48:31;;;;;;;4.93;3.30;;;10.40;99.90;;;;;;5075009;28;20090;-64
2022/04/22 06:50:59;;;;;;;4.40;2.80;;;10.50;99.90;;;;;;5078454;28;20032;-64
2022/04/22 06:53:25;;;;;;;3.03;2.70;;;10.40;99.90;;;;;;5069841;28;20143;-65
2022/04/22 06:55:53;;;;;;;15.10;3.03;;;10.60;99.90;;;;;;5058738;28;20785;-65
2022/04/22 06:58:20;;;;;;;4.40;2.78;;;10.80;99.90;;;;;;5056960;28;20388;-65
2022/04/22 07:00:46;;;;;;;4.03;2.50;;;11.20;99.90;;;;;;5058017;28;20843;-65
2022/04/22 07:03:14;;;;;;;3.80;2.70;;;12.20;99.90;;;;;;5057375;28;20535;-65
2022/04/22 07:05:44;;;;;;;4.45;2.58;;;13.80;99.90;;;;;;5058129;28;20319;-65
2022/04/22 07:08:14;;;;;;;3.67;3.08;;;15.00;99.90;;;;;;5058019;28;20053;-65
2022/04/22 07:10:47;;;;;;;3.47;2.55;;;15.20;98.10;;;;;;5057919;28;20051;-65
2022/04/22 07:13:16;;;;;;;2.80;2.50;;;15.70;96.60;;;;;;5057114;28;20049;-65
2022/04/22 07:15:43;;;;;;;3.03;2.33;;;15.50;93.10;;;;;;5058200;28;20414;-65
2022/04/22 07:18:10;;;;;;;3.92;2.65;;;16.40;95.30;;;;;;5071010;28;20610;-65
2022/04/22 07:20:36;;;;;;;4.30;2.40;;;16.00;94.30;;;;;;5065912;28;20055;-65
2022/04/22 07:23:02;;;;;;;6.60;2.72;;;16.70;94.10;;;;;;5073590;28;20047;-65
2022/04/22 07:25:28;;;;;;;4.53;2.42;;;17.00;93.00;;;;;;5062862;28;20450;-65
2022/04/22 07:27:54;;;;;;;4.18;2.92;;;17.60;93.60;;;;;;5063335;28;20113;-65
2022/04/22 07:30:21;;;;;;;4.63;2.90;;;17.80;91.50;;;;;;5061761;28;20603;-65
2022/04/22 07:32:48;;;;;;;4.20;2.40;;;17.50;90.60;;;;;;5059334;28;20509;-65
2022/04/22 07:35:19;;;;;;;3.65;2.88;;;17.30;90.40;;;;;;5056952;28;20083;-65
2022/04/22 07:37:50;;;;;;;4.88;2.72;;;17.10;89.70;;;;;;5057356;28;20059;-65
2022/04/22 07:40:17;;;;;;;4.78;2.67;;;16.80;89.90;;;;;;5058101;28;20055;-65
2022/04/22 07:46:46;;;;;;;3.83;2.80;;;17.60;91.80;;;;;;5057945;28;20305;-65
2022/04/22 07:48:20;;;;;;;4.05;2.65;;;18.10;89.90;;;;;;5073286;28;20067;-65
2022/04/22 07:50:47;;;;;;;3.90;2.75;;;17.80;87.20;;;;;;5077540;28;20044;-65
2022/04/22 07:53:20;;;;;;;3.65;3.05;;;17.50;87.30;;;;;;5077419;28;20143;-65
2022/04/22 07:55:46;;;;;;;3.63;2.60;;;18.00;85.90;;;;;;5077795;28;20044;-65
2022/04/22 07:58:13;;;;;;;3.35;2.75;;;17.60;86.50;;;;;;5077426;28;20155;-65
2022/04/22 08:00:40;;;;;;;2.90;2.60;;;17.40;87.00;;;;;;5075574;28;20136;-66
2022/04/22 08:03:09;;;;;;;4.07;2.47;;;17.60;89.60;;;;;;5077211;28;20060;-65
2022/04/22 08:05:37;;;;;;;4.22;2.95;;;18.20;88.80;;;;;;5066461;28;20082;-66
2022/04/22 08:08:04;;;;;;;3.17;2.75;;;18.90;85.30;;;;;;5066909;28;20044;-66
2022/04/22 08:10:29;;;;;;;4.45;2.70;;;19.50;85.00;;;;;;5067160;28;20145;-66
2022/04/22 08:12:55;;;;;;;4.22;2.58;;;19.10;82.10;;;;;;5064115;28;20475;-65
2022/04/22 08:15:21;;;;;;;4.78;3.00;;;18.50;84.10;;;;;;5070235;28;20087;-66
2022/04/22 08:17:47;;;;;;;3.25;2.67;;;18.80;83.80;;;;;;5077199;28;20492;-66
2022/04/22 08:20:13;;;;;;;4.53;2.75;;;18.70;84.40;;;;;;5076958;28;20051;-66
2022/04/22 08:22:39;;;;;;;3.33;3.00;;;18.70;84.10;;;;;;5076193;28;20066;-65
2022/04/22 08:25:06;;;;;;;4.22;2.90;;;19.20;84.40;;;;;;5076725;28;20127;-66
2022/04/22 08:27:32;;;;;;;5.10;2.72;;;19.00;81.50;;;;;;5068155;28;20047;-66
2022/04/22 08:29:59;;;;;;;3.67;2.65;;;19.50;80.80;;;;;;5055999;28;20052;-65
2022/04/22 08:32:25;;;;;;;3.67;2.70;;;19.30;83.00;;;;;;5055833;28;20153;-66
2022/04/22 08:34:51;;;;;;;3.67;2.70;;;19.00;79.20;;;;;;5054943;28;20045;-65
2022/04/22 08:37:17;;;;;;;8.73;3.05;;;18.40;80.10;;;;;;5056672;28;20397;-66
2022/04/22 08:39:43;;;;;;;3.88;2.70;;;18.20;82.10;;;;;;5055694;28;20696;-65
2022/04/22 08:42:12;;;;;;;2.53;2.33;;;18.60;83.00;;;;;;5054041;28;20052;-66
2022/04/22 08:44:38;;;;;;;5.60;2.85;;;18.30;80.30;;;;;;5055748;28;20055;-65
2022/04/22 08:50:01;;;;;;;4.65;2.80;;;18.70;79.40;;;;;;5076198;28;20113;-66
2022/04/22 08:52:31;;;;;;;5.40;2.70;;;18.30;80.70;;;;;;5076629;28;20048;-66
2022/04/22 08:54:58;;;;;;;3.60;2.40;;;18.30;82.00;;;;;;5076013;28;20044;-66
2022/04/22 08:57:23;;;;;;;4.07;2.78;;;18.10;82.60;;;;;;5075870;28;20048;-65
2022/04/22 08:59:50;;;;;;;5.50;3.40;;;18.10;80.70;;;;;;5076236;28;20801;-66
2022/04/22 09:02:20;;;;;;;5.07;2.95;;;17.90;78.40;;;;;;5075792;28;20073;-66
2022/04/22 09:04:46;;;;;;;5.40;2.90;;;17.90;82.20;;;;;;5076391;28;20056;-66
2022/04/22 09:07:18;;;;;;;5.25;2.47;;;18.20;81.50;;;;;;5076541;28;20075;-65
2022/04/22 09:09:49;;;;;;;3.88;2.60;;;18.60;81.00;;;;;;5075378;28;20065;-65
2022/04/22 09:12:19;;;;;;;3.30;2.40;;;18.70;78.80;;;;;;5075741;28;20530;-65
2022/04/22 09:14:56;;;;;;;3.30;2.90;;;18.70;79.00;;;;;;5076227;28;20059;-66
2022/04/22 09:17:27;;;;;;;7.03;2.80;;;18.50;77.00;;;;;;5074465;28;20054;-65
2022/04/22 09:19:54;;;;;;;3.83;2.72;;;18.60;79.40;;;;;;5076527;28;20052;-65
2022/04/22 09:22:21;;;;;;;6.22;3.00;;;18.10;78.40;;;;;;5076137;28;20040;-65
2022/04/22 09:24:52;;;;;;;3.78;2.72;;;18.20;78.90;;;;;;5075706;28;20044;-65
2022/04/22 09:27:18;;;;;;;4.32;2.58;;;18.00;79.80;;;;;;5076489;28;20083;-65
2022/04/22 09:29:54;;;;;;;5.97;2.75;;;18.10;80.20;;;;;;5076059;28;20686;-66
2022/04/22 09:32:26;;;;;;;4.68;2.55;;;18.60;79.10;;;;;;5075429;28;20815;-65
2022/04/22 09:34:55;;;;;;;3.05;2.50;;;18.20;79.30;;;;;;5074708;28;20139;-65
2022/04/22 09:42:53;;;;;;;3.97;2.85;;;18.40;78.10;;;;;;5075393;28;20070;-65
2022/04/22 09:45:20;;;;;;;3.50;2.50;;;18.50;77.10;;;;;;5074867;28;20047;-65
2022/04/22 09:47:57;;;;;;;3.22;2.60;;;18.20;77.30;;;;;;5075559;28;20062;-65
2022/04/22 09:50:40;;;;;;;3.00;2.40;;;19.10;76.20;;;;;;5074622;28;20052;-65
2022/04/22 09:53:06;;;;;;;4.15;3.05;;;18.90;75.30;;;;;;5073277;28;20691;-66
2022/04/22 09:55:36;;;;;;;5.32;3.15;;;18.90;75.30;;;;;;5074233;28;20051;-65
2022/04/22 09:58:02;;;;;;;5.18;2.67;;;19.50;76.10;;;;;;5074438;28;20044;-65
2022/04/22 10:00:32;;;;;;;3.05;2.55;;;19.70;75.60;;;;;;5073931;28;20047;-65
2022/04/22 10:02:58;;;;;;;3.78;2.90;;;19.90;74.20;;;;;;5073202;28;20147;-65
2022/04/22 10:05:31;;;;;;;3.53;3.22;;;19.50;73.40;;;;;;5070305;28;20129;-65
2022/04/22 10:07:57;;;;;;;6.18;2.83;;;19.80;75.30;;;;;;5073371;28;20040;-65
2022/04/22 10:10:42;;;;;;;3.63;2.65;;;19.10;75.10;;;;;;5073192;28;20527;-65
2022/04/22 10:13:14;;;;;;;3.00;2.60;;;19.60;75.20;;;;;;5072270;28;20399;-65
2022/04/22 10:15:41;;;;;;;5.40;3.20;;;19.90;73.40;;;;;;5072967;28;20044;-65
2022/04/22 10:18:09;;;;;;;5.22;3.00;;;20.00;73.40;;;;;;5073538;28;20090;-65
2022/04/22 10:20:36;;;;;;;3.85;3.03;;;20.20;72.70;;;;;;5072451;28;20852;-65
2022/04/22 10:23:02;;;;;;;4.45;3.10;;;20.30;73.00;;;;;;5072882;28;20072;-65
2022/04/22 10:25:31;;;;;;;4.97;3.00;;;20.30;73.60;;;;;;5073575;28;20403;-65
2022/04/22 10:27:59;;;;;;;6.38;3.30;;;20.50;72.00;;;;;;5073490;28;20044;-65
2022/04/22 10:30:25;;;;;;;4.80;3.05;;;20.10;71.60;;;;;;5074487;28;20079;-65
2022/04/22 10:32:51;;;;;;;4.18;3.03;;;20.50;72.00;;;;;;5073528;28;20101;-65
2022/04/22 10:35:22;;;;;;;6.22;3.45;;;20.60;72.10;;;;;;5073363;28;20055;-65
2022/04/22 10:37:49;;;;;;;4.22;3.35;;;20.70;70.70;;;;;;5073255;28;20055;-65
2022/04/22 10:40:20;;;;;;;4.13;3.28;;;20.10;70.90;;;;;;5074368;28;20059;-64
2022/04/22 10:42:48;;;;;;;5.03;3.33;;;19.80;72.20;;;;;;5071585;28;20056;-65
2022/04/22 10:47:58;;;;;;;3.40;2.72;;;19.50;73.40;;;;;;5072981;28;20132;-65
2022/04/22 10:50:32;;;;;;;3.80;3.50;;;19.00;73.30;;;;;;5073351;28;20048;-65
2022/04/22 10:53:09;;;;;;;4.25;3.30;;;19.00;73.90;;;;;;5073513;28;20110;-65
2022/04/22 10:55:41;;;;;;;4.25;2.78;;;18.60;75.10;;;;;;5073349;28;20052;-64
2022/04/22 10:58:13;;;;;;;3.53;3.23;;;18.10;76.10;;;;;;5073786;28;20048;-65
2022/04/22 11:00:49;;;;;;;5.70;3.55;;;18.00;76.00;;;;;;5072831;28;20226;-65
2022/04/22 11:03:18;;;;;;;7.60;3.40;;;17.80;76.70;;;;;;5071315;28;20084;-64
2022/04/22 11:05:49;;;;;;;3.42;2.85;;;17.80;76.30;;;;;;5073551;28;20048;-65
2022/04/22 11:08:20;;;;;;;5.30;3.40;;;17.90;76.00;;;;;;5076433;28;20463;-65
2022/04/22 11:10:48;;;;;;;4.07;3.25;;;17.80;74.90;;;;;;5076044;28;20040;-64
2022/04/22 11:13:33;;;;;;;4.10;3.47;;;17.70;74.00;;;;;;5077613;28;20128;-64
2022/04/22 11:16:05;;;;;;;6.32;3.50;;;17.60;75.50;;;;;;5076246;28;20897;-64
2022/04/22 11:18:31;;;;;;;5.00;3.75;;;17.70;75.20;;;;;;5077693;28;20203;-64
2022/04/22 11:21:19;;;;;;;6.45;3.47;;;17.70;74.90;;;;;;5077231;28;20563;-64
2022/04/22 11:23:45;;;;;;;3.42;2.53;;;17.70;75.00;;;;;;5076959;28;20063;-65
2022/04/22 11:26:15;;;;;;;4.13;2.92;;;17.50;75.00;;;;;;5077293;28;20109;-65
2022/04/22 11:28:42;;;;;;;4.95;3.28;;;17.50;75.70;;;;;;5075226;28;20052;-64
2022/04/22 11:31:10;;;;;;;4.75;3.00;;;17.50;75.40;;;;;;5069463;28;20198;-64
2022/04/22 11:33:47;;;;;;;5.32;3.10;;;17.60;74.40;;;;;;5061834;28;20147;-64
2022/04/22 11:36:13;;;;;;;6.35;3.25;;;17.70;73.80;;;;;;5057015;28;20052;-64
2022/04/22 11:38:52;;;;;;;5.05;3.33;;;17.60;74.80;;;;;;5055847;28;20879;-64
2022/04/22 11:41:18;;;;;;;5.13;3.50;;;17.60;75.00;;;;;;5057150;28;20052;-64
2022/04/22 11:43:45;;;;;;;4.85;3.10;;;17.50;73.30;;;;;;5061318;28;20118;-64
2022/04/22 11:46:12;;;;;;;3.30;3.00;;;17.50;73.70;;;;;;5066639;28;20089;-64
2022/04/22 11:48:53;;;;;;;6.22;3.70;;;17.50;73.40;;;;;;5059928;28;20135;-65
2022/04/22 11:51:20;;;;;;;4.80;3.70;;;17.60;74.50;;;;;;5063546;28;20051;-64
2022/04/22 11:53:50;;;;;;;5.35;3.17;;;17.70;74.10;;;;;;5064302;28;20036;-64
2022/04/22 11:56:25;;;;;;;7.72;3.35;;;17.80;74.50;;;;;;5060077;28;20082;-64
2022/04/22 11:58:54;;;;;;;5.20;4.05;;;17.70;74.70;;;;;;5059319;28;20048;-65
2022/04/22 12:06:58;;;;;;;5.80;4.07;;;17.70;76.40;;;;;;5062986;28;20044;-64
2022/04/22 12:09:25;;;;;;;5.25;4.53;;;17.80;76.00;;;;;;5059984;28;20048;-64
2022/04/22 12:11:51;;;;;;;4.65;4.20;;;17.50;76.30;;;;;;5070650;28;20045;-64
2022/04/22 12:14:25;;;;;;;6.25;4.55;;;17.70;76.80;;;;;;5066243;28;20125;-64
2022/04/22 12:17:02;;;;;;;4.78;4.03;;;17.70;76.60;;;;;;5056532;28;20053;-64
2022/04/22 12:19:29;;;;;;;5.18;4.22;;;17.90;76.30;;;;;;5056729;28;20045;-64
2022/04/22 12:21:55;;;;;;;7.43;3.88;;;18.00;75.90;;;;;;5056472;28;20041;-64
2022/04/22 12:24:21;;;;;;;4.53;4.10;;;18.10;75.50;;;;;;5055953;28;20102;-64
2022/04/22 12:26:47;;;;;;;5.35;3.22;;;18.20;75.30;;;;;;5056031;28;20050;-64
2022/04/22 12:29:15;;;;;;;4.15;3.75;;;18.10;75.40;;;;;;5061585;28;20048;-65
2022/04/22 12:31:42;;;;;;;5.22;3.50;;;18.10;74.90;;;;;;5064981;28;20109;-64
2022/04/22 12:34:13;;;;;;;5.53;4.50;;;18.20;74.90;;;;;;5067328;28;20181;-64
2022/04/22 12:36:53;;;;;;;18.63;4.70;;;18.40;75.50;;;;;;5069906;28;20054;-64
2022/04/22 12:39:42;;;;;;;7.40;3.80;;;18.40;75.40;;;;;;5059471;28;20159;-64
2022/04/22 12:42:17;;;;;;;10.80;4.93;;;18.60;75.00;;;;;;5061560;28;20048;-64
2022/04/22 12:52:57;;;;;;;4.82;4.13;;;18.70;75.70;;;;;;5065855;28;20388;-64
2022/04/22 12:55:23;;;;;;;6.35;4.35;;;18.90;75.90;;;;;;5054504;28;20441;-64
2022/04/22 12:57:59;;;;;;;7.03;4.70;;;19.00;76.30;;;;;;5056377;28;20044;-65
2022/04/22 13:00:25;;;;;;;7.03;4.10;;;19.00;74.80;;;;;;5066137;28;20114;-63
2022/04/22 13:02:51;;;;;;;6.22;4.22;;;19.00;74.40;;;;;;5074346;28;20079;-64
2022/04/22 13:05:18;;;;;;;6.53;4.15;;;19.00;74.70;;;;;;5074908;28;20147;-64
2022/04/22 13:07:47;;;;;;;7.82;5.38;;;18.90;74.30;;;;;;5075759;28;20073;-65
2022/04/22 13:10:14;;;;;;;6.45;4.93;;;18.90;75.00;;;;;;5075446;28;20059;-64
2022/04/22 13:12:41;;;;;;;6.60;5.45;;;18.80;74.70;;;;;;5075882;28;20066;-64
2022/04/22 13:15:17;;;;;;;12.32;5.70;;;18.70;75.40;;;;;;5075430;28;20047;-64
2022/04/22 13:17:43;;;;;;;5.38;4.88;;;18.70;75.70;;;;;;5075954;28;20056;-64
2022/04/22 13:20:12;;;;;;;5.60;4.93;;;18.70;75.60;;;;;;5073224;28;20044;-63
2022/04/22 13:22:38;;;;;;;6.53;3.85;;;18.90;75.30;;;;;;5073746;28;20885;-64
2022/04/22 13:25:05;;;;;;;12.65;4.85;;;19.10;75.60;;;;;;5073826;28;20056;-64
2022/04/22 13:27:31;;;;;;;9.68;5.75;;;19.20;75.40;;;;;;5074638;28;20043;-63
2022/04/22 13:29:57;;;;;;;6.40;5.63;;;19.00;75.60;;;;;;5073458;28;20415;-63
2022/04/22 13:32:23;;;;;;;8.45;5.20;;;18.60;76.20;;;;;;5072556;28;20644;-63
2022/04/22 13:34:49;;;;;;;6.45;5.03;;;18.50;76.70;;;;;;5074774;28;20047;-63
2022/04/22 13:37:14;;;;;;;8.52;5.18;;;18.50;76.90;;;;;;5075633;28;20864;-63
2022/04/22 13:39:40;;;;;;;6.90;5.05;;;18.50;77.40;;;;;;5074718;28;20048;-63
2022/04/22 13:42:07;;;;;;;5.43;4.22;;;18.40;77.20;;;;;;5075128;28;20129;-64
2022/04/22 13:52:46;;;;;;;6.40;5.28;;;18.50;77.40;;;;;;5074945;28;20109;-64
2022/04/22 13:55:12;;;;;;;7.43;5.05;;;18.60;78.00;;;;;;5074713;28;20048;-64
2022/04/22 13:57:39;;;;;;;6.22;4.53;;;18.60;77.80;;;;;;5074279;28;20044;-64
2022/04/22 14:00:05;;;;;;;7.80;5.35;;;18.40;77.70;;;;;;5074926;28;20127;-64
2022/04/22 14:02:31;;;;;;;6.13;5.43;;;18.30;78.00;;;;;;5074728;28;20131;-64
2022/04/22 14:04:57;;;;;;;6.90;4.93;;;18.20;78.60;;;;;;5074426;28;20609;-63